Dixon, Iowa
Current Conditions -  °F | °C
As of 8:52 PM on Thursday 27 Nov 2014 (Local Time) from KDVN Reporting Station
Clear Clear  
Wind Chill: -13°   Ceiling: Unl
Heat Index: -13°   Visibility: 10mi
Dew Point: -17°   Wind: 0mph
Humidity: 76%   Direction: NA
Pressure: 30.4"   Gusts: NA
Location:  41.74°N, 90.78°W
Report Text: KDVN 280252Z AUTO 00000KT 10SM CLR M13/M17 A3040 RMK AO2 SLP311 T11331167 57015
Loading
Personal Weather Stations






























Interactive Weather Map New forecast layout! Learn more

10-Day Weather Forecast

Advertisements
Track Severe Weather on mobile